Grand Centre, Canada
Current Conditions -  °F | °C
As of 6:00 PM on Saturday 22 Nov 2014 (Local Time) from CYOD Reporting Station
Light Snow Light Snow  
Wind Chill: 10°   Ceiling: 3000
Heat Index: 21°   Visibility: 2mi
Dew Point: 18°   Wind: 10mph
Humidity: 86%   Direction: 40°NE
Pressure: 29.45"   Gusts: NA
Location:  54.42°N, 110.2°W
Report Text: CYOD 230100Z 04009KT 2SM -SN OVC030 M06/M08 A2945 RMK SN5SC3SLP008
Loading
Personal Weather Stations






























Interactive Weather Map New forecast layout! Learn more

10-Day Weather Forecast

Advertisements
Track Severe Weather on mobile